sensor_id;sensor_type;location;lat;lon;timestamp;pressure;altitude;pressure_sealevel;temperature;humidity
40948;BME280;49382;-25.924;28.194;2022-10-17T00:00:05;85391.01;;;18.92;39.71
40948;BME280;49382;-25.924;28.194;2022-10-17T00:02:29;85387.48;;;19.23;39.55
40948;BME280;49382;-25.924;28.194;2022-10-17T00:04:54;85385.86;;;19.09;39.51
40948;BME280;49382;-25.924;28.194;2022-10-17T00:07:20;85385.70;;;19.93;38.30
40948;BME280;49382;-25.924;28.194;2022-10-17T00:09:45;85379.07;;;19.78;39.13
40948;BME280;49382;-25.924;28.194;2022-10-17T00:14:36;85371.32;;;17.95;41.09
40948;BME280;49382;-25.924;28.194;2022-10-17T00:17:01;85372.11;;;18.65;41.04
40948;BME280;49382;-25.924;28.194;2022-10-17T00:19:26;85371.39;;;18.11;41.81
40948;BME280;49382;-25.924;28.194;2022-10-17T00:21:51;85372.47;;;16.99;43.61
40948;BME280;49382;-25.924;28.194;2022-10-17T00:24:17;85375.15;;;17.68;42.67
40948;BME280;49382;-25.924;28.194;2022-10-17T00:26:42;85377.50;;;18.78;41.02
40948;BME280;49382;-25.924;28.194;2022-10-17T00:29:07;85368.84;;;19.19;40.25
40948;BME280;49382;-25.924;28.194;2022-10-17T00:31:32;85370.66;;;18.43;41.62
40948;BME280;49382;-25.924;28.194;2022-10-17T00:33:57;85368.21;;;18.26;41.81
40948;BME280;49382;-25.924;28.194;2022-10-17T00:36:25;85363.94;;;18.05;42.28
40948;BME280;49382;-25.924;28.194;2022-10-17T00:38:51;85367.00;;;18.50;41.72
40948;BME280;49382;-25.924;28.194;2022-10-17T00:41:16;85359.89;;;19.57;40.01
40948;BME280;49382;-25.924;28.194;2022-10-17T00:46:03;85354.93;;;18.26;41.40
40948;BME280;49382;-25.924;28.194;2022-10-17T00:48:29;85354.76;;;17.75;42.85
40948;BME280;49382;-25.924;28.194;2022-10-17T00:50:54;85355.97;;;18.87;41.84
40948;BME280;49382;-25.924;28.194;2022-10-17T00:53:19;85345.47;;;18.24;42.74
40948;BME280;49382;-25.924;28.194;2022-10-17T00:55:49;85343.84;;;18.25;42.17
40948;BME280;49382;-25.924;28.194;2022-10-17T00:58:10;85339.46;;;16.99;44.70
40948;BME280;49382;-25.924;28.194;2022-10-17T01:00:36;85336.50;;;17.61;43.07
40948;BME280;49382;-25.924;28.194;2022-10-17T01:03:01;85343.84;;;17.83;42.88
40948;BME280;49382;-25.924;28.194;2022-10-17T01:05:26;85347.62;;;17.62;43.95
40948;BME280;49382;-25.924;28.194;2022-10-17T01:07:52;85350.34;;;18.56;41.74
40948;BME280;49382;-25.924;28.194;2022-10-17T01:10:17;85353.59;;;17.67;43.42
40948;BME280;49382;-25.924;28.194;2022-10-17T01:12:49;85357.73;;;17.99;42.57
40948;BME280;49382;-25.924;28.194;2022-10-17T01:15:12;85360.77;;;17.73;42.98
40948;BME280;49382;-25.924;28.194;2022-10-17T01:17:38;85361.54;;;17.62;43.63
40948;BME280;49382;-25.924;28.194;2022-10-17T01:22:25;85373.81;;;18.61;41.73
40948;BME280;49382;-25.924;28.194;2022-10-17T01:32:05;85378.23;;;18.76;41.58
40948;BME280;49382;-25.924;28.194;2022-10-17T01:34:31;85382.55;;;18.49;41.96
40948;BME280;49382;-25.924;28.194;2022-10-17T01:36:57;85381.39;;;17.84;42.56
40948;BME280;49382;-25.924;28.194;2022-10-17T01:39:24;85379.83;;;17.70;42.74
40948;BME280;49382;-25.924;28.194;2022-10-17T01:41:48;85376.41;;;19.72;40.28
40948;BME280;49382;-25.924;28.194;2022-10-17T01:44:12;85381.23;;;18.57;41.76
40948;BME280;49382;-25.924;28.194;2022-10-17T01:46:36;85380.23;;;18.70;42.10
40948;BME280;49382;-25.924;28.194;2022-10-17T01:49:01;85380.54;;;18.60;41.83
40948;BME280;49382;-25.924;28.194;2022-10-17T01:51:29;85375.11;;;19.17;41.06
40948;BME280;49382;-25.924;28.194;2022-10-17T01:53:53;85376.16;;;17.66;43.22
40948;BME280;49382;-25.924;28.194;2022-10-17T01:56:16;85380.08;;;18.10;42.73
40948;BME280;49382;-25.924;28.194;2022-10-17T01:58:42;85377.20;;;18.29;43.25
40948;BME280;49382;-25.924;28.194;2022-10-17T02:01:07;85367.85;;;17.74;43.36
40948;BME280;49382;-25.924;28.194;2022-10-17T02:03:31;85365.81;;;19.44;40.74
40948;BME280;49382;-25.924;28.194;2022-10-17T02:05:55;85373.52;;;18.99;41.13
40948;BME280;49382;-25.924;28.194;2022-10-17T02:08:24;85391.69;;;18.43;41.74
40948;BME280;49382;-25.924;28.194;2022-10-17T02:10:48;85393.13;;;19.04;40.46
40948;BME280;49382;-25.924;28.194;2022-10-17T02:13:17;85392.17;;;19.53;40.24
40948;BME280;49382;-25.924;28.194;2022-10-17T02:15:45;85393.34;;;18.65;41.71
40948;BME280;49382;-25.924;28.194;2022-10-17T02:18:09;85391.54;;;19.32;40.68
40948;BME280;49382;-25.924;28.194;2022-10-17T02:20:30;85405.18;;;18.14;42.44
40948;BME280;49382;-25.924;28.194;2022-10-17T02:22:55;85410.74;;;17.52;43.39
40948;BME280;49382;-25.924;28.194;2022-10-17T02:25:26;85418.87;;;18.30;42.50
40948;BME280;49382;-25.924;28.194;2022-10-17T02:27:46;85431.20;;;19.08;41.16
40948;BME280;49382;-25.924;28.194;2022-10-17T02:30:11;85445.28;;;19.35;40.89
40948;BME280;49382;-25.924;28.194;2022-10-17T02:32:37;85453.23;;;19.43;40.78
40948;BME280;49382;-25.924;28.194;2022-10-17T02:34:59;85455.41;;;19.70;40.29
40948;BME280;49382;-25.924;28.194;2022-10-17T02:37:27;85458.08;;;19.18;40.58
40948;BME280;49382;-25.924;28.194;2022-10-17T02:39:50;85462.53;;;19.95;39.67
40948;BME280;49382;-25.924;28.194;2022-10-17T02:42:14;85472.27;;;19.37;40.01
40948;BME280;49382;-25.924;28.194;2022-10-17T02:44:41;85485.85;;;19.84;39.99
40948;BME280;49382;-25.924;28.194;2022-10-17T02:47:10;85484.54;;;19.68;39.90
40948;BME280;49382;-25.924;28.194;2022-10-17T02:49:32;85489.80;;;18.99;40.95
40948;BME280;49382;-25.924;28.194;2022-10-17T02:52:00;85491.35;;;20.14;39.66
40948;BME280;49382;-25.924;28.194;2022-10-17T02:54:23;85501.11;;;19.16;41.21
40948;BME280;49382;-25.924;28.194;2022-10-17T02:56:50;85507.23;;;19.40;40.42
40948;BME280;49382;-25.924;28.194;2022-10-17T02:59:12;85511.17;;;19.30;40.49
40948;BME280;49382;-25.924;28.194;2022-10-17T03:01:36;85518.24;;;19.83;39.78
40948;BME280;49382;-25.924;28.194;2022-10-17T03:04:07;85523.89;;;20.27;39.40
40948;BME280;49382;-25.924;28.194;2022-10-17T03:06:28;85526.10;;;19.79;40.14
40948;BME280;49382;-25.924;28.194;2022-10-17T03:08:53;85529.61;;;19.08;40.44
40948;BME280;49382;-25.924;28.194;2022-10-17T03:11:18;85535.65;;;19.21;40.82
40948;BME280;49382;-25.924;28.194;2022-10-17T03:13:43;85540.49;;;18.43;41.50
40948;BME280;49382;-25.924;28.194;2022-10-17T03:16:08;85548.35;;;20.26;39.66
40948;BME280;49382;-25.924;28.194;2022-10-17T03:18:33;85549.43;;;19.37;40.57
40948;BME280;49382;-25.924;28.194;2022-10-17T03:20:58;85553.79;;;19.52;39.99
40948;BME280;49382;-25.924;28.194;2022-10-17T03:23:23;85555.41;;;19.60;40.65
40948;BME280;49382;-25.924;28.194;2022-10-17T03:25:48;85561.76;;;18.46;42.47
40948;BME280;49382;-25.924;28.194;2022-10-17T03:28:13;85563.51;;;18.95;41.57
40948;BME280;49382;-25.924;28.194;2022-10-17T03:30:38;85567.43;;;19.52;40.82
40948;BME280;49382;-25.924;28.194;2022-10-17T03:33:03;85573.66;;;19.93;40.21
40948;BME280;49382;-25.924;28.194;2022-10-17T03:35:28;85580.46;;;20.29;39.49
40948;BME280;49382;-25.924;28.194;2022-10-17T03:37:55;85582.69;;;20.20;39.49
40948;BME280;49382;-25.924;28.194;2022-10-17T03:40:19;85587.30;;;19.79;40.27
40948;BME280;49382;-25.924;28.194;2022-10-17T03:42:45;85591.06;;;20.54;38.98
40948;BME280;49382;-25.924;28.194;2022-10-17T03:45:11;85590.13;;;19.92;39.92
40948;BME280;49382;-25.924;28.194;2022-10-17T03:47:36;85594.75;;;20.32;39.43
40948;BME280;49382;-25.924;28.194;2022-10-17T03:50:02;85599.03;;;19.65;40.16
40948;BME280;49382;-25.924;28.194;2022-10-17T03:52:27;85603.85;;;19.01;41.25
40948;BME280;49382;-25.924;28.194;2022-10-17T03:54:53;85612.57;;;19.63;40.21
40948;BME280;49382;-25.924;28.194;2022-10-17T03:57:19;85618.79;;;19.70;40.40
40948;BME280;49382;-25.924;28.194;2022-10-17T03:59:44;85625.09;;;20.32;40.03
40948;BME280;49382;-25.924;28.194;2022-10-17T04:02:09;85629.90;;;19.76;40.57
40948;BME280;49382;-25.924;28.194;2022-10-17T04:04:34;85630.93;;;19.39;40.64
40948;BME280;49382;-25.924;28.194;2022-10-17T04:06:59;85636.00;;;20.21;40.07
40948;BME280;49382;-25.924;28.194;2022-10-17T04:09:24;85638.91;;;19.68;40.59
40948;BME280;49382;-25.924;28.194;2022-10-17T04:11:50;85640.89;;;19.15;41.03
40948;BME280;49382;-25.924;28.194;2022-10-17T04:14:15;85647.22;;;20.18;39.65
40948;BME280;49382;-25.924;28.194;2022-10-17T04:16:40;85646.53;;;19.49;40.57
40948;BME280;49382;-25.924;28.194;2022-10-17T04:19:05;85644.90;;;19.94;40.40
40948;BME280;49382;-25.924;28.194;2022-10-17T04:21:31;85646.14;;;19.62;41.25
40948;BME280;49382;-25.924;28.194;2022-10-17T04:23:59;85647.03;;;20.30;39.79
40948;BME280;49382;-25.924;28.194;2022-10-17T04:26:22;85650.29;;;19.29;41.40
40948;BME280;49382;-25.924;28.194;2022-10-17T04:28:47;85652.92;;;18.92;42.44
40948;BME280;49382;-25.924;28.194;2022-10-17T04:31:14;85657.43;;;19.78;41.49
40948;BME280;49382;-25.924;28.194;2022-10-17T04:33:38;85659.38;;;20.01;40.71
40948;BME280;49382;-25.924;28.194;2022-10-17T04:36:06;85664.14;;;20.18;40.78
40948;BME280;49382;-25.924;28.194;2022-10-17T04:38:30;85666.77;;;19.27;42.09
40948;BME280;49382;-25.924;28.194;2022-10-17T04:40:57;85669.21;;;19.69;41.85
40948;BME280;49382;-25.924;28.194;2022-10-17T04:43:20;85670.51;;;19.50;42.13
40948;BME280;49382;-25.924;28.194;2022-10-17T04:45:46;85673.53;;;19.42;42.30
40948;BME280;49382;-25.924;28.194;2022-10-17T04:48:12;85682.20;;;20.86;39.70
40948;BME280;49382;-25.924;28.194;2022-10-17T04:50:38;85684.34;;;19.48;41.20
40948;BME280;49382;-25.924;28.194;2022-10-17T04:53:04;85687.83;;;19.64;41.26
40948;BME280;49382;-25.924;28.194;2022-10-17T04:55:29;85688.54;;;18.33;43.03
40948;BME280;49382;-25.924;28.194;2022-10-17T04:57:54;85696.59;;;20.19;40.81
40948;BME280;49382;-25.924;28.194;2022-10-17T05:00:20;85697.79;;;20.12;40.88
40948;BME280;49382;-25.924;28.194;2022-10-17T05:02:46;85702.64;;;19.34;42.42
40948;BME280;49382;-25.924;28.194;2022-10-17T05:05:12;85701.93;;;19.83;40.84
40948;BME280;49382;-25.924;28.194;2022-10-17T05:07:39;85702.39;;;19.60;40.94
40948;BME280;49382;-25.924;28.194;2022-10-17T05:10:03;85703.05;;;20.72;39.71
40948;BME280;49382;-25.924;28.194;2022-10-17T05:12:29;85704.35;;;20.73;39.31
40948;BME280;49382;-25.924;28.194;2022-10-17T05:14:54;85697.09;;;18.68;42.81
40948;BME280;49382;-25.924;28.194;2022-10-17T05:17:19;85700.14;;;20.78;40.03
40948;BME280;49382;-25.924;28.194;2022-10-17T05:19:45;85702.03;;;20.69;39.73
40948;BME280;49382;-25.924;28.194;2022-10-17T05:22:11;85706.32;;;21.33;38.99
40948;BME280;49382;-25.924;28.194;2022-10-17T05:24:37;85700.28;;;21.92;38.70
40948;BME280;49382;-25.924;28.194;2022-10-17T05:27:03;85698.78;;;21.42;38.35
40948;BME280;49382;-25.924;28.194;2022-10-17T05:29:29;85699.51;;;20.94;39.64
40948;BME280;49382;-25.924;28.194;2022-10-17T05:31:54;85694.14;;;21.98;37.97
40948;BME280;49382;-25.924;28.194;2022-10-17T05:34:20;85695.98;;;21.85;38.28
40948;BME280;49382;-25.924;28.194;2022-10-17T05:36:45;85700.16;;;20.63;39.30
40948;BME280;49382;-25.924;28.194;2022-10-17T05:39:12;85696.11;;;20.77;39.18
40948;BME280;49382;-25.924;28.194;2022-10-17T05:41:37;85697.04;;;20.29;39.81
40948;BME280;49382;-25.924;28.194;2022-10-17T05:44:03;85699.33;;;21.79;37.12
40948;BME280;49382;-25.924;28.194;2022-10-17T05:46:29;85699.99;;;21.54;37.46
40948;BME280;49382;-25.924;28.194;2022-10-17T05:48:54;85697.64;;;21.67;38.17
40948;BME280;49382;-25.924;28.194;2022-10-17T05:51:20;85696.80;;;22.06;37.31
40948;BME280;49382;-25.924;28.194;2022-10-17T05:53:46;85696.86;;;22.79;36.36
40948;BME280;49382;-25.924;28.194;2022-10-17T05:56:12;85702.52;;;22.10;36.81
40948;BME280;49382;-25.924;28.194;2022-10-17T05:58:40;85703.46;;;21.89;37.45
40948;BME280;49382;-25.924;28.194;2022-10-17T06:01:04;85705.23;;;22.04;37.37
40948;BME280;49382;-25.924;28.194;2022-10-17T06:03:27;85707.86;;;22.44;37.97
40948;BME280;49382;-25.924;28.194;2022-10-17T06:05:53;85709.01;;;23.62;34.85
40948;BME280;49382;-25.924;28.194;2022-10-17T06:08:19;85708.16;;;23.49;35.10
40948;BME280;49382;-25.924;28.194;2022-10-17T06:10:47;85710.73;;;23.11;36.69
40948;BME280;49382;-25.924;28.194;2022-10-17T06:13:10;85710.81;;;23.71;35.57
40948;BME280;49382;-25.924;28.194;2022-10-17T06:15:36;85711.68;;;23.45;34.54
40948;BME280;49382;-25.924;28.194;2022-10-17T06:18:02;85718.38;;;23.32;35.86
40948;BME280;49382;-25.924;28.194;2022-10-17T06:20:28;85717.83;;;21.46;37.32
40948;BME280;49382;-25.924;28.194;2022-10-17T06:22:54;85721.14;;;23.04;36.28
40948;BME280;49382;-25.924;28.194;2022-10-17T06:25:19;85725.29;;;23.47;35.73
40948;BME280;49382;-25.924;28.194;2022-10-17T06:27:45;85724.48;;;24.42;33.46
40948;BME280;49382;-25.924;28.194;2022-10-17T06:30:11;85725.53;;;24.20;34.76
40948;BME280;49382;-25.924;28.194;2022-10-17T06:32:35;85725.46;;;23.53;35.36
40948;BME280;49382;-25.924;28.194;2022-10-17T06:35:02;85724.92;;;24.67;32.93
40948;BME280;49382;-25.924;28.194;2022-10-17T06:37:31;85723.40;;;24.41;33.90
40948;BME280;49382;-25.924;28.194;2022-10-17T06:39:53;85721.28;;;24.60;33.85
40948;BME280;49382;-25.924;28.194;2022-10-17T06:42:18;85722.60;;;24.86;33.60
40948;BME280;49382;-25.924;28.194;2022-10-17T06:44:44;85724.69;;;24.12;32.06
40948;BME280;49382;-25.924;28.194;2022-10-17T06:47:10;85723.66;;;24.18;32.57
40948;BME280;49382;-25.924;28.194;2022-10-17T06:49:36;85728.17;;;24.53;32.15
40948;BME280;49382;-25.924;28.194;2022-10-17T06:52:01;85725.97;;;24.23;34.39
40948;BME280;49382;-25.924;28.194;2022-10-17T06:54:27;85728.50;;;25.28;31.70
40948;BME280;49382;-25.924;28.194;2022-10-17T06:56:53;85726.23;;;24.85;32.04
40948;BME280;49382;-25.924;28.194;2022-10-17T06:59:18;85725.03;;;24.95;31.33
40948;BME280;49382;-25.924;28.194;2022-10-17T07:01:44;85719.84;;;25.99;29.97
40948;BME280;49382;-25.924;28.194;2022-10-17T07:04:09;85718.14;;;24.71;31.24
40948;BME280;49382;-25.924;28.194;2022-10-17T07:06:35;85714.40;;;25.40;31.07
40948;BME280;49382;-25.924;28.194;2022-10-17T07:09:01;85708.26;;;25.72;30.91
40948;BME280;49382;-25.924;28.194;2022-10-17T07:11:27;85707.78;;;25.04;31.00
40948;BME280;49382;-25.924;28.194;2022-10-17T07:13:52;85700.86;;;25.21;31.03
40948;BME280;49382;-25.924;28.194;2022-10-17T07:16:19;85697.17;;;25.78;31.51
40948;BME280;49382;-25.924;28.194;2022-10-17T07:18:48;85693.53;;;25.14;33.48
40948;BME280;49382;-25.924;28.194;2022-10-17T07:21:10;85686.54;;;26.84;30.17
40948;BME280;49382;-25.924;28.194;2022-10-17T07:23:36;85685.06;;;26.93;29.29
40948;BME280;49382;-25.924;28.194;2022-10-17T07:26:03;85676.20;;;26.80;30.63
40948;BME280;49382;-25.924;28.194;2022-10-17T07:28:27;85671.74;;;27.61;29.37
40948;BME280;49382;-25.924;28.194;2022-10-17T07:30:52;85666.38;;;26.91;30.61
40948;BME280;49382;-25.924;28.194;2022-10-17T07:33:18;85666.80;;;27.31;28.65
40948;BME280;49382;-25.924;28.194;2022-10-17T07:35:44;85661.18;;;26.12;29.22
40948;BME280;49382;-25.924;28.194;2022-10-17T07:38:09;85659.61;;;26.99;28.24
40948;BME280;49382;-25.924;28.194;2022-10-17T07:40:35;85658.05;;;27.61;26.86
40948;BME280;49382;-25.924;28.194;2022-10-17T07:43:01;85658.14;;;26.38;29.52
40948;BME280;49382;-25.924;28.194;2022-10-17T07:45:27;85656.68;;;26.88;29.04
40948;BME280;49382;-25.924;28.194;2022-10-17T07:47:55;85655.54;;;27.50;28.98
40948;BME280;49382;-25.924;28.194;2022-10-17T07:50:19;85657.58;;;26.47;30.43
40948;BME280;49382;-25.924;28.194;2022-10-17T07:52:43;85656.02;;;27.00;29.36
40948;BME280;49382;-25.924;28.194;2022-10-17T07:55:09;85656.85;;;27.66;28.77
40948;BME280;49382;-25.924;28.194;2022-10-17T07:57:35;85654.70;;;26.71;29.07
40948;BME280;49382;-25.924;28.194;2022-10-17T08:00:01;85656.41;;;27.02;27.98
40948;BME280;49382;-25.924;28.194;2022-10-17T08:02:27;85650.80;;;26.78;28.81
40948;BME280;49382;-25.924;28.194;2022-10-17T08:04:52;85649.78;;;26.64;29.31
40948;BME280;49382;-25.924;28.194;2022-10-17T08:07:18;85647.18;;;26.80;29.29
40948;BME280;49382;-25.924;28.194;2022-10-17T08:09:44;85651.33;;;26.66;29.46
40948;BME280;49382;-25.924;28.194;2022-10-17T08:12:09;85653.14;;;25.88;30.19
40948;BME280;49382;-25.924;28.194;2022-10-17T08:14:35;85649.88;;;26.05;29.35
40948;BME280;49382;-25.924;28.194;2022-10-17T08:17:00;85646.98;;;26.49;28.49
40948;BME280;49382;-25.924;28.194;2022-10-17T08:19:26;85644.34;;;26.95;28.67
40948;BME280;49382;-25.924;28.194;2022-10-17T08:21:51;85638.02;;;27.33;29.60
40948;BME280;49382;-25.924;28.194;2022-10-17T08:24:17;85637.60;;;27.75;29.68
40948;BME280;49382;-25.924;28.194;2022-10-17T08:26:42;85637.27;;;27.78;28.63
40948;BME280;49382;-25.924;28.194;2022-10-17T08:29:12;85633.97;;;27.10;28.97
40948;BME280;49382;-25.924;28.194;2022-10-17T08:31:34;85634.42;;;27.85;29.04
40948;BME280;49382;-25.924;28.194;2022-10-17T08:33:59;85631.33;;;27.51;29.64
40948;BME280;49382;-25.924;28.194;2022-10-17T08:36:25;85630.08;;;27.46;28.54
40948;BME280;49382;-25.924;28.194;2022-10-17T08:38:51;85623.48;;;28.12;28.97
40948;BME280;49382;-25.924;28.194;2022-10-17T08:41:25;85621.97;;;28.33;28.92
40948;BME280;49382;-25.924;28.194;2022-10-17T08:43:52;85622.99;;;27.40;27.48
40948;BME280;49382;-25.924;28.194;2022-10-17T08:46:07;85621.27;;;27.80;28.49
40948;BME280;49382;-25.924;28.194;2022-10-17T08:48:37;85619.98;;;28.36;27.14
40948;BME280;49382;-25.924;28.194;2022-10-17T08:51:02;85614.39;;;27.69;27.47
40948;BME280;49382;-25.924;28.194;2022-10-17T08:53:29;85608.58;;;28.78;26.45
40948;BME280;49382;-25.924;28.194;2022-10-17T08:55:51;85603.28;;;27.59;28.67
40948;BME280;49382;-25.924;28.194;2022-10-17T08:58:19;85596.73;;;27.82;29.01
40948;BME280;49382;-25.924;28.194;2022-10-17T09:00:42;85595.02;;;28.57;27.97
40948;BME280;49382;-25.924;28.194;2022-10-17T09:03:16;85588.52;;;27.13;30.92
40948;BME280;49382;-25.924;28.194;2022-10-17T09:05:41;85586.51;;;27.77;29.75
40948;BME280;49382;-25.924;28.194;2022-10-17T09:08:05;85581.38;;;27.44;28.63
40948;BME280;49382;-25.924;28.194;2022-10-17T09:10:31;85582.42;;;28.07;28.21
40948;BME280;49382;-25.924;28.194;2022-10-17T09:13:01;85579.50;;;27.82;29.60
40948;BME280;49382;-25.924;28.194;2022-10-17T09:15:27;85580.46;;;27.74;29.32
40948;BME280;49382;-25.924;28.194;2022-10-17T09:17:46;85578.18;;;28.55;27.82
40948;BME280;49382;-25.924;28.194;2022-10-17T09:20:11;85578.30;;;28.24;27.57
40948;BME280;49382;-25.924;28.194;2022-10-17T09:22:36;85576.67;;;27.85;28.46
40948;BME280;49382;-25.924;28.194;2022-10-17T09:24:59;85572.99;;;27.14;29.57
40948;BME280;49382;-25.924;28.194;2022-10-17T09:27:26;85572.07;;;27.04;30.14
40948;BME280;49382;-25.924;28.194;2022-10-17T09:29:53;85569.23;;;27.95;28.82
40948;BME280;49382;-25.924;28.194;2022-10-17T09:32:18;85565.72;;;27.58;30.07
40948;BME280;49382;-25.924;28.194;2022-10-17T09:34:40;85568.20;;;27.94;29.62
40948;BME280;49382;-25.924;28.194;2022-10-17T09:37:10;85564.02;;;28.25;28.42
40948;BME280;49382;-25.924;28.194;2022-10-17T09:39:31;85560.66;;;28.25;27.94
40948;BME280;49382;-25.924;28.194;2022-10-17T09:41:58;85552.58;;;28.66;25.86
40948;BME280;49382;-25.924;28.194;2022-10-17T09:44:27;85551.87;;;26.76;28.10
40948;BME280;49382;-25.924;28.194;2022-10-17T09:47:00;85548.17;;;26.51;29.84
40948;BME280;49382;-25.924;28.194;2022-10-17T09:49:17;85548.87;;;25.81;30.79
40948;BME280;49382;-25.924;28.194;2022-10-17T09:51:40;85545.80;;;26.50;29.76
40948;BME280;49382;-25.924;28.194;2022-10-17T09:54:17;85545.13;;;27.10;28.92
40948;BME280;49382;-25.924;28.194;2022-10-17T09:56:31;85543.30;;;26.21;29.15
40948;BME280;49382;-25.924;28.194;2022-10-17T09:58:57;85543.92;;;27.06;28.44
40948;BME280;49382;-25.924;28.194;2022-10-17T10:01:25;85541.86;;;26.58;29.17
40948;BME280;49382;-25.924;28.194;2022-10-17T10:03:49;85542.84;;;27.38;28.94
40948;BME280;49382;-25.924;28.194;2022-10-17T10:06:15;85541.57;;;27.72;28.26
40948;BME280;49382;-25.924;28.194;2022-10-17T10:08:48;85537.95;;;26.73;29.60
40948;BME280;49382;-25.924;28.194;2022-10-17T10:11:06;85535.87;;;28.05;28.01
40948;BME280;49382;-25.924;28.194;2022-10-17T10:13:32;85534.13;;;26.75;29.40
40948;BME280;49382;-25.924;28.194;2022-10-17T10:18:28;85532.60;;;28.29;28.59
40948;BME280;49382;-25.924;28.194;2022-10-17T10:23:17;85529.88;;;28.71;28.61
40948;BME280;49382;-25.924;28.194;2022-10-17T10:25:48;85522.75;;;27.35;29.22
40948;BME280;49382;-25.924;28.194;2022-10-17T10:28:10;85519.90;;;28.41;28.23
40948;BME280;49382;-25.924;28.194;2022-10-17T10:30:31;85521.48;;;27.11;29.47
40948;BME280;49382;-25.924;28.194;2022-10-17T10:32:57;85519.07;;;27.40;28.49
40948;BME280;49382;-25.924;28.194;2022-10-17T10:35:24;85520.37;;;27.60;29.78
40948;BME280;49382;-25.924;28.194;2022-10-17T10:37:50;85514.46;;;27.72;29.14
40948;BME280;49382;-25.924;28.194;2022-10-17T10:40:18;85514.98;;;27.52;28.63
40948;BME280;49382;-25.924;28.194;2022-10-17T10:42:39;85513.18;;;27.37;29.86
40948;BME280;49382;-25.924;28.194;2022-10-17T10:47:30;85506.51;;;26.42;29.84
40948;BME280;49382;-25.924;28.194;2022-10-17T10:52:28;85507.19;;;26.58;29.01
40948;BME280;49382;-25.924;28.194;2022-10-17T10:54:53;85508.74;;;27.61;27.87
40948;BME280;49382;-25.924;28.194;2022-10-17T10:57:16;85506.90;;;27.74;28.68
40948;BME280;49382;-25.924;28.194;2022-10-17T10:59:40;85504.87;;;27.38;28.95
40948;BME280;49382;-25.924;28.194;2022-10-17T11:02:09;85503.63;;;26.67;29.00
40948;BME280;49382;-25.924;28.194;2022-10-17T11:04:32;85504.93;;;26.42;29.03
40948;BME280;49382;-25.924;28.194;2022-10-17T11:06:59;85506.51;;;26.49;29.10
40948;BME280;49382;-25.924;28.194;2022-10-17T11:09:29;85500.61;;;26.81;28.65
40948;BME280;49382;-25.924;28.194;2022-10-17T11:11:47;85505.30;;;27.39;26.83
40948;BME280;49382;-25.924;28.194;2022-10-17T11:14:16;85502.53;;;26.65;27.33
40948;BME280;49382;-25.924;28.194;2022-10-17T11:16:38;85502.61;;;26.58;27.97
40948;BME280;49382;-25.924;28.194;2022-10-17T11:19:08;85504.74;;;27.50;27.39
40948;BME280;49382;-25.924;28.194;2022-10-17T11:21:36;85506.13;;;27.47;27.00
40948;BME280;49382;-25.924;28.194;2022-10-17T11:23:58;85503.81;;;27.13;27.86
40948;BME280;49382;-25.924;28.194;2022-10-17T11:26:22;85507.16;;;27.56;27.89
40948;BME280;49382;-25.924;28.194;2022-10-17T11:28:44;85507.19;;;27.38;27.70
40948;BME280;49382;-25.924;28.194;2022-10-17T11:31:12;85501.84;;;26.50;28.49
40948;BME280;49382;-25.924;28.194;2022-10-17T11:33:43;85507.67;;;28.11;27.47
40948;BME280;49382;-25.924;28.194;2022-10-17T11:36:04;85506.68;;;28.43;26.62
40948;BME280;49382;-25.924;28.194;2022-10-17T11:38:35;85499.44;;;27.05;27.24
40948;BME280;49382;-25.924;28.194;2022-10-17T11:40:58;85501.00;;;27.48;27.04
40948;BME280;49382;-25.924;28.194;2022-10-17T11:43:22;85496.68;;;28.03;26.85
40948;BME280;49382;-25.924;28.194;2022-10-17T11:45:47;85497.74;;;27.46;27.37
40948;BME280;49382;-25.924;28.194;2022-10-17T11:48:15;85497.64;;;28.14;26.58
40948;BME280;49382;-25.924;28.194;2022-10-17T11:50:38;85492.68;;;28.19;26.49
40948;BME280;49382;-25.924;28.194;2022-10-17T11:53:05;85487.18;;;27.69;27.31
40948;BME280;49382;-25.924;28.194;2022-10-17T11:55:29;85485.28;;;26.72;28.59
40948;BME280;49382;-25.924;28.194;2022-10-17T12:00:26;85485.13;;;27.25;28.30
40948;BME280;49382;-25.924;28.194;2022-10-17T12:02:49;85482.61;;;27.29;27.98
40948;BME280;49382;-25.924;28.194;2022-10-17T12:05:19;85477.19;;;26.58;28.41
40948;BME280;49382;-25.924;28.194;2022-10-17T12:07:42;85476.62;;;26.78;28.23
40948;BME280;49382;-25.924;28.194;2022-10-17T12:10:12;85476.06;;;27.19;27.90
40948;BME280;49382;-25.924;28.194;2022-10-17T12:12:30;85477.82;;;27.15;28.01
40948;BME280;49382;-25.924;28.194;2022-10-17T12:14:53;85479.50;;;28.12;27.59
40948;BME280;49382;-25.924;28.194;2022-10-17T12:17:28;85479.48;;;28.47;26.59
40948;BME280;49382;-25.924;28.194;2022-10-17T12:22:18;85478.82;;;26.15;28.66
40948;BME280;49382;-25.924;28.194;2022-10-17T12:24:39;85482.45;;;27.00;27.62
40948;BME280;49382;-25.924;28.194;2022-10-17T12:29:28;85478.07;;;26.94;27.30
40948;BME280;49382;-25.924;28.194;2022-10-17T12:31:52;85476.37;;;27.23;27.09
40948;BME280;49382;-25.924;28.194;2022-10-17T12:34:19;85476.23;;;26.67;27.66
40948;BME280;49382;-25.924;28.194;2022-10-17T12:36:44;85477.55;;;27.11;27.20
40948;BME280;49382;-25.924;28.194;2022-10-17T12:44:01;85469.19;;;27.11;27.15
40948;BME280;49382;-25.924;28.194;2022-10-17T12:48:59;85471.75;;;28.30;25.92
40948;BME280;49382;-25.924;28.194;2022-10-17T12:51:19;85467.53;;;27.34;26.97
40948;BME280;49382;-25.924;28.194;2022-10-17T12:53:50;85466.71;;;26.14;27.73
40948;BME280;49382;-25.924;28.194;2022-10-17T12:56:09;85463.44;;;26.94;27.60
40948;BME280;49382;-25.924;28.194;2022-10-17T12:58:35;85457.56;;;26.66;27.66
40948;BME280;49382;-25.924;28.194;2022-10-17T13:01:01;85457.38;;;27.63;26.73
40948;BME280;49382;-25.924;28.194;2022-10-17T13:03:29;85459.50;;;27.82;25.45
40948;BME280;49382;-25.924;28.194;2022-10-17T13:05:55;85454.71;;;28.26;25.02
40948;BME280;49382;-25.924;28.194;2022-10-17T13:08:20;85455.88;;;28.70;25.30